Newquay, United Kingdom

5:13 PM GMT on March 23, 2017 (GMT +0000)
Porth | | Change Station

Elev 135 ft 50.42 °N, 5.05 °W | Updated 26 seconds ago

Rain
Rain
42.1 °F
Feels Like 42 °F
N
0.0
Wind Variable Wind from North
Gusts 0.0 mph

Today
High -- | Low -- °F
--% Chance of Precip.
Yesterday
High -- | Low -- °F
Precip. -- in
Pressure 29.95 in
Visibility 3.7 miles
Clouds Few 400 ft
Scattered Clouds 600 ft
Overcast 800 ft
Windchill 42 °F
Dew Point 42 °F
Humidity 99%
Rainfall 0.24 in
Snow Depth Not available.
6:16 AM 6:38 PM
Waning Crescent, 22% visible
METAR EGDR 231650Z 04014KT 6000 SHRA FEW004 SCT006 OVC008 06/05 Q1014 YLO1 NOSIG
Pressure 29.95 in
Visibility 3.7 miles
Clouds Few 400 ft
Scattered Clouds 600 ft
Overcast 800 ft
Windchill 42 °F
Dew Point 42 °F
Humidity 99%
Rainfall 0.24 in
Snow Depth Not available.
6:16 AM 6:38 PM
Waning Crescent, 22% visible
METAR EGDR 231650Z 04014KT 6000 SHRA FEW004 SCT006 OVC008 06/05 Q1014 YLO1 NOSIG

Get Severe Weather Alerts

Thanks for signing up!

Be on the lookout for a verification email in your inbox.

You'll start receiving the daily forecast at 8 AM.

×

10-Day Weather Forecast

×

Almanac

Astronomy

Mar. 23, 2017 Rise Set
Actual Time
Civil Twilight
Nautical Twilight
Astronomical Twilight
Moon
Length of Visible Light
Length of Day
Tomorrow will be .
, % of the Moon is Illuminated

Today's Extremes

Country Highs Country Lows

Community

WunderPhotos

Upload Photos

1,962,540 photos uploaded!

WunderBlog® & News

Nearby

Air Quality

  Air Quality AQ Index Pollutant
Not available.

Snow Depth

Station Depth Elevation

Earthquake Activity

City Distance Mag. Time & Date
Minimum magnitude displayed is 2.5.

Earthquake Activity

City Distance Mag. Time & Date
Minimum magnitude displayed is 2.5.

Coastal Water Temperatures

Place Temperature

Stations

Nearby Weather Stations

Station Location Temp. Windchill Dew Point Humidity Wind Precip. Elev Updated Type